Accueil
METAR-TAF:

METAR-TAF

Aéroports :

Maastricht Aix-la-Chapelle, Pays-Bas

Aéroport de Maastricht-Aix-la-Chapelle

latitude: 50-55N, longitude: 005-47E, altitude: 114 m

Observation

Le bulletin a été fait il y a 43 minutes, à 04:25 UTC
Vent 3 kt de sud
Température -2°C
Humidité 93%
Pression 1025 hPa
Visibilité 10 km ou plus

METAR: EHBK 180425Z AUTO 18003KT 9999 NCD M02/M03 Q1025

Heure: 06:08 (05:08 UTC)

Prévision

Le bulletin a été fait il y a 6 heures et 1 minutes, à 23:07 UTC
Prévision valable du 18 à 00 UTC au 19 à 06 UTC
Vent 5 kt de sud/sud-est
Visibilité 10 km ou plus
pas de nuages en-dessous de 1500 mètres et pas de cumulonimbus.

TAF: EHBK 172307Z 1800/1906 15005KT CAVOK

Observations et prévisions météorologiques de plus de 4000 aéroports (messages METAR et TAF).

Les stations disponibles sont représentées par des disques jaunes et rouges sur la carte.

Passer la souris dessus pour voir le nom de la station.

Cliquer dessus pour voir les observations et prévisions météorologiques.

Pour changer de carte: cliquez sur les boutons verts avec une croix noire pour zoomer, sur le bouton vert avec un tiret pour effectuer un zoom arrière, ou sur les flèches vertes pour les cartes adjacentes.


METAR-TAF: